sensor_id;sensor_type;location;lat;lon;timestamp;P1;durP1;ratioP1;P2;durP2;ratioP2
81106;SDS011;70588;53.172;8.620;2023-08-12T00:00:18;4.78;;;3.20;;
81106;SDS011;70588;53.172;8.620;2023-08-12T00:02:44;4.93;;;2.85;;
81106;SDS011;70588;53.172;8.620;2023-08-12T00:05:10;5.25;;;3.03;;
81106;SDS011;70588;53.172;8.620;2023-08-12T00:07:36;7.80;;;3.33;;
81106;SDS011;70588;53.172;8.620;2023-08-12T00:10:02;9.38;;;3.72;;
81106;SDS011;70588;53.172;8.620;2023-08-12T00:12:29;5.03;;;3.42;;
81106;SDS011;70588;53.172;8.620;2023-08-12T00:14:58;4.53;;;3.40;;
81106;SDS011;70588;53.172;8.620;2023-08-12T00:17:23;5.57;;;3.65;;
81106;SDS011;70588;53.172;8.620;2023-08-12T00:19:49;5.85;;;3.67;;
81106;SDS011;70588;53.172;8.620;2023-08-12T00:22:14;7.82;;;3.58;;
81106;SDS011;70588;53.172;8.620;2023-08-12T00:24:40;11.23;;;4.82;;
81106;SDS011;70588;53.172;8.620;2023-08-12T00:27:05;4.63;;;3.28;;
81106;SDS011;70588;53.172;8.620;2023-08-12T00:29:32;7.82;;;3.92;;
81106;SDS011;70588;53.172;8.620;2023-08-12T00:31:57;7.90;;;4.30;;
81106;SDS011;70588;53.172;8.620;2023-08-12T00:34:23;4.80;;;3.25;;
81106;SDS011;70588;53.172;8.620;2023-08-12T00:36:48;4.15;;;2.80;;
81106;SDS011;70588;53.172;8.620;2023-08-12T00:39:13;6.43;;;4.32;;
81106;SDS011;70588;53.172;8.620;2023-08-12T00:41:39;5.55;;;3.45;;
81106;SDS011;70588;53.172;8.620;2023-08-12T00:44:04;5.95;;;3.20;;
81106;SDS011;70588;53.172;8.620;2023-08-12T00:46:30;5.30;;;3.83;;
81106;SDS011;70588;53.172;8.620;2023-08-12T00:48:55;6.32;;;3.53;;
81106;SDS011;70588;53.172;8.620;2023-08-12T00:51:21;6.18;;;3.30;;
81106;SDS011;70588;53.172;8.620;2023-08-12T00:53:47;11.93;;;4.28;;
81106;SDS011;70588;53.172;8.620;2023-08-12T00:56:14;5.88;;;3.65;;
81106;SDS011;70588;53.172;8.620;2023-08-12T00:58:39;8.02;;;3.65;;
81106;SDS011;70588;53.172;8.620;2023-08-12T01:01:06;6.97;;;3.55;;
81106;SDS011;70588;53.172;8.620;2023-08-12T01:03:32;7.30;;;3.30;;
81106;SDS011;70588;53.172;8.620;2023-08-12T01:05:58;4.45;;;3.45;;
81106;SDS011;70588;53.172;8.620;2023-08-12T01:08:24;6.50;;;3.88;;
81106;SDS011;70588;53.172;8.620;2023-08-12T01:10:57;6.32;;;3.30;;
81106;SDS011;70588;53.172;8.620;2023-08-12T01:16:11;4.57;;;3.33;;
81106;SDS011;70588;53.172;8.620;2023-08-12T01:18:41;6.72;;;3.90;;
81106;SDS011;70588;53.172;8.620;2023-08-12T01:21:07;4.07;;;3.40;;
81106;SDS011;70588;53.172;8.620;2023-08-12T01:23:37;6.93;;;3.55;;
81106;SDS011;70588;53.172;8.620;2023-08-12T01:26:04;7.55;;;3.88;;
81106;SDS011;70588;53.172;8.620;2023-08-12T01:28:29;8.15;;;3.72;;
81106;SDS011;70588;53.172;8.620;2023-08-12T01:30:55;6.75;;;3.35;;
81106;SDS011;70588;53.172;8.620;2023-08-12T01:36:15;4.35;;;3.40;;
81106;SDS011;70588;53.172;8.620;2023-08-12T01:38:42;9.45;;;4.18;;
81106;SDS011;70588;53.172;8.620;2023-08-12T01:41:09;6.35;;;3.83;;
81106;SDS011;70588;53.172;8.620;2023-08-12T01:43:37;6.65;;;3.47;;
81106;SDS011;70588;53.172;8.620;2023-08-12T01:46:03;7.20;;;3.45;;
81106;SDS011;70588;53.172;8.620;2023-08-12T01:48:28;5.32;;;3.50;;
81106;SDS011;70588;53.172;8.620;2023-08-12T01:50:54;6.97;;;4.43;;
81106;SDS011;70588;53.172;8.620;2023-08-12T01:53:19;8.27;;;4.37;;
81106;SDS011;70588;53.172;8.620;2023-08-12T01:55:45;5.87;;;4.30;;
81106;SDS011;70588;53.172;8.620;2023-08-12T01:58:10;6.90;;;4.25;;
81106;SDS011;70588;53.172;8.620;2023-08-12T02:00:36;8.02;;;4.80;;
81106;SDS011;70588;53.172;8.620;2023-08-12T02:03:02;5.15;;;4.35;;
81106;SDS011;70588;53.172;8.620;2023-08-12T02:05:28;6.93;;;5.22;;
81106;SDS011;70588;53.172;8.620;2023-08-12T02:07:53;8.50;;;6.07;;
81106;SDS011;70588;53.172;8.620;2023-08-12T02:10:18;12.75;;;7.07;;
81106;SDS011;70588;53.172;8.620;2023-08-12T02:12:44;11.15;;;6.57;;
81106;SDS011;70588;53.172;8.620;2023-08-12T02:15:09;9.80;;;6.10;;
81106;SDS011;70588;53.172;8.620;2023-08-12T02:17:35;8.55;;;6.75;;
81106;SDS011;70588;53.172;8.620;2023-08-12T02:20:00;9.60;;;6.35;;
81106;SDS011;70588;53.172;8.620;2023-08-12T02:22:26;11.50;;;6.32;;
81106;SDS011;70588;53.172;8.620;2023-08-12T02:24:51;13.18;;;7.35;;
81106;SDS011;70588;53.172;8.620;2023-08-12T02:27:16;11.65;;;6.95;;
81106;SDS011;70588;53.172;8.620;2023-08-12T02:29:42;10.07;;;6.07;;
81106;SDS011;70588;53.172;8.620;2023-08-12T02:32:07;8.30;;;5.68;;
81106;SDS011;70588;53.172;8.620;2023-08-12T02:34:33;10.30;;;6.55;;
81106;SDS011;70588;53.172;8.620;2023-08-12T02:36:58;10.25;;;7.32;;
81106;SDS011;70588;53.172;8.620;2023-08-12T02:39:23;9.83;;;6.37;;
81106;SDS011;70588;53.172;8.620;2023-08-12T02:41:49;10.70;;;7.50;;
81106;SDS011;70588;53.172;8.620;2023-08-12T02:44:14;9.27;;;6.80;;
81106;SDS011;70588;53.172;8.620;2023-08-12T02:46:39;11.18;;;7.20;;
81106;SDS011;70588;53.172;8.620;2023-08-12T02:49:05;10.07;;;6.60;;
81106;SDS011;70588;53.172;8.620;2023-08-12T02:51:30;9.98;;;7.25;;
81106;SDS011;70588;53.172;8.620;2023-08-12T02:53:56;13.07;;;7.57;;
81106;SDS011;70588;53.172;8.620;2023-08-12T02:56:21;10.50;;;6.67;;
81106;SDS011;70588;53.172;8.620;2023-08-12T02:58:46;10.27;;;7.40;;
81106;SDS011;70588;53.172;8.620;2023-08-12T03:01:12;10.45;;;6.95;;
81106;SDS011;70588;53.172;8.620;2023-08-12T03:03:38;16.30;;;7.63;;
81106;SDS011;70588;53.172;8.620;2023-08-12T03:06:03;8.00;;;5.75;;
81106;SDS011;70588;53.172;8.620;2023-08-12T03:08:28;8.10;;;6.05;;
81106;SDS011;70588;53.172;8.620;2023-08-12T03:11:00;8.98;;;6.00;;
81106;SDS011;70588;53.172;8.620;2023-08-12T03:13:27;9.95;;;6.85;;
81106;SDS011;70588;53.172;8.620;2023-08-12T03:15:52;10.15;;;6.07;;
81106;SDS011;70588;53.172;8.620;2023-08-12T03:18:18;10.98;;;6.35;;
81106;SDS011;70588;53.172;8.620;2023-08-12T03:20:43;9.70;;;6.35;;
81106;SDS011;70588;53.172;8.620;2023-08-12T03:23:09;8.53;;;5.67;;
81106;SDS011;70588;53.172;8.620;2023-08-12T03:25:34;10.13;;;5.60;;
81106;SDS011;70588;53.172;8.620;2023-08-12T03:27:59;10.07;;;5.67;;
81106;SDS011;70588;53.172;8.620;2023-08-12T03:30:25;8.67;;;4.90;;
81106;SDS011;70588;53.172;8.620;2023-08-12T03:32:51;7.85;;;5.15;;
81106;SDS011;70588;53.172;8.620;2023-08-12T03:35:17;8.77;;;4.85;;
81106;SDS011;70588;53.172;8.620;2023-08-12T03:37:43;7.45;;;4.82;;
81106;SDS011;70588;53.172;8.620;2023-08-12T03:40:08;7.10;;;4.35;;
81106;SDS011;70588;53.172;8.620;2023-08-12T03:42:34;7.35;;;4.68;;
81106;SDS011;70588;53.172;8.620;2023-08-12T03:44:59;5.70;;;4.53;;
81106;SDS011;70588;53.172;8.620;2023-08-12T03:47:24;6.00;;;3.90;;
81106;SDS011;70588;53.172;8.620;2023-08-12T03:49:50;7.78;;;4.38;;
81106;SDS011;70588;53.172;8.620;2023-08-12T03:52:16;7.55;;;4.10;;
81106;SDS011;70588;53.172;8.620;2023-08-12T03:54:41;8.38;;;4.53;;
81106;SDS011;70588;53.172;8.620;2023-08-12T03:57:07;6.10;;;4.18;;
81106;SDS011;70588;53.172;8.620;2023-08-12T03:59:33;7.57;;;5.13;;
81106;SDS011;70588;53.172;8.620;2023-08-12T04:01:58;7.22;;;4.03;;
81106;SDS011;70588;53.172;8.620;2023-08-12T04:04:23;7.10;;;4.20;;
81106;SDS011;70588;53.172;8.620;2023-08-12T04:06:49;7.15;;;4.55;;
81106;SDS011;70588;53.172;8.620;2023-08-12T04:09:19;6.13;;;4.03;;
81106;SDS011;70588;53.172;8.620;2023-08-12T04:11:45;8.70;;;5.18;;
81106;SDS011;70588;53.172;8.620;2023-08-12T04:14:11;7.57;;;4.97;;
81106;SDS011;70588;53.172;8.620;2023-08-12T04:16:38;5.35;;;4.35;;
81106;SDS011;70588;53.172;8.620;2023-08-12T04:19:03;8.63;;;6.15;;
81106;SDS011;70588;53.172;8.620;2023-08-12T04:21:29;9.25;;;5.18;;
81106;SDS011;70588;53.172;8.620;2023-08-12T04:23:54;12.80;;;7.38;;
81106;SDS011;70588;53.172;8.620;2023-08-12T04:26:20;9.77;;;6.47;;
81106;SDS011;70588;53.172;8.620;2023-08-12T04:28:45;8.37;;;6.63;;
81106;SDS011;70588;53.172;8.620;2023-08-12T04:31:10;11.23;;;7.60;;
81106;SDS011;70588;53.172;8.620;2023-08-12T04:33:36;13.43;;;7.23;;
81106;SDS011;70588;53.172;8.620;2023-08-12T04:36:01;10.10;;;7.63;;
81106;SDS011;70588;53.172;8.620;2023-08-12T04:38:26;10.43;;;7.28;;
81106;SDS011;70588;53.172;8.620;2023-08-12T04:40:52;11.43;;;7.10;;
81106;SDS011;70588;53.172;8.620;2023-08-12T04:43:19;10.93;;;7.15;;
81106;SDS011;70588;53.172;8.620;2023-08-12T04:45:48;8.77;;;6.15;;
81106;SDS011;70588;53.172;8.620;2023-08-12T04:48:13;10.65;;;8.85;;
81106;SDS011;70588;53.172;8.620;2023-08-12T04:50:39;13.80;;;8.00;;
81106;SDS011;70588;53.172;8.620;2023-08-12T04:53:06;7.45;;;5.32;;
81106;SDS011;70588;53.172;8.620;2023-08-12T04:55:32;7.93;;;6.05;;
81106;SDS011;70588;53.172;8.620;2023-08-12T04:57:59;9.43;;;6.20;;
81106;SDS011;70588;53.172;8.620;2023-08-12T05:00:24;9.50;;;5.75;;
81106;SDS011;70588;53.172;8.620;2023-08-12T05:02:50;9.52;;;6.65;;
81106;SDS011;70588;53.172;8.620;2023-08-12T05:05:16;11.00;;;6.88;;
81106;SDS011;70588;53.172;8.620;2023-08-12T05:07:41;9.50;;;6.40;;
81106;SDS011;70588;53.172;8.620;2023-08-12T05:10:07;11.98;;;7.32;;
81106;SDS011;70588;53.172;8.620;2023-08-12T05:12:32;9.15;;;6.40;;
81106;SDS011;70588;53.172;8.620;2023-08-12T05:14:58;9.43;;;6.50;;
81106;SDS011;70588;53.172;8.620;2023-08-12T05:17:23;8.98;;;6.43;;
81106;SDS011;70588;53.172;8.620;2023-08-12T05:19:49;9.13;;;7.20;;
81106;SDS011;70588;53.172;8.620;2023-08-12T05:22:15;9.18;;;6.72;;
81106;SDS011;70588;53.172;8.620;2023-08-12T05:24:40;7.60;;;6.05;;
81106;SDS011;70588;53.172;8.620;2023-08-12T05:27:06;12.68;;;8.05;;
81106;SDS011;70588;53.172;8.620;2023-08-12T05:29:31;10.90;;;8.18;;
81106;SDS011;70588;53.172;8.620;2023-08-12T05:31:57;10.40;;;8.27;;
81106;SDS011;70588;53.172;8.620;2023-08-12T05:34:22;14.90;;;8.60;;
81106;SDS011;70588;53.172;8.620;2023-08-12T05:36:47;10.35;;;7.65;;
81106;SDS011;70588;53.172;8.620;2023-08-12T05:39:13;8.70;;;6.50;;
81106;SDS011;70588;53.172;8.620;2023-08-12T05:41:40;8.95;;;6.32;;
81106;SDS011;70588;53.172;8.620;2023-08-12T05:44:05;8.68;;;6.20;;
81106;SDS011;70588;53.172;8.620;2023-08-12T05:46:31;11.15;;;7.97;;
81106;SDS011;70588;53.172;8.620;2023-08-12T05:48:56;10.48;;;6.88;;
81106;SDS011;70588;53.172;8.620;2023-08-12T05:51:22;9.32;;;6.18;;
81106;SDS011;70588;53.172;8.620;2023-08-12T05:53:48;10.50;;;7.00;;
81106;SDS011;70588;53.172;8.620;2023-08-12T05:56:13;7.93;;;6.80;;
81106;SDS011;70588;53.172;8.620;2023-08-12T05:58:39;9.88;;;6.90;;
81106;SDS011;70588;53.172;8.620;2023-08-12T06:01:04;8.13;;;6.60;;
81106;SDS011;70588;53.172;8.620;2023-08-12T06:03:29;9.97;;;7.27;;
81106;SDS011;70588;53.172;8.620;2023-08-12T06:05:55;11.15;;;7.65;;
81106;SDS011;70588;53.172;8.620;2023-08-12T06:08:20;6.78;;;5.90;;
81106;SDS011;70588;53.172;8.620;2023-08-12T06:10:45;10.60;;;7.15;;
81106;SDS011;70588;53.172;8.620;2023-08-12T06:13:11;9.48;;;6.65;;
81106;SDS011;70588;53.172;8.620;2023-08-12T06:15:36;7.97;;;5.35;;
81106;SDS011;70588;53.172;8.620;2023-08-12T06:18:02;9.48;;;5.65;;
81106;SDS011;70588;53.172;8.620;2023-08-12T06:20:27;4.72;;;3.92;;
81106;SDS011;70588;53.172;8.620;2023-08-12T06:22:53;6.45;;;4.65;;
81106;SDS011;70588;53.172;8.620;2023-08-12T06:25:18;8.05;;;5.07;;
81106;SDS011;70588;53.172;8.620;2023-08-12T06:27:45;10.98;;;6.05;;
81106;SDS011;70588;53.172;8.620;2023-08-12T06:30:11;7.95;;;4.55;;
81106;SDS011;70588;53.172;8.620;2023-08-12T06:32:37;6.10;;;4.47;;
81106;SDS011;70588;53.172;8.620;2023-08-12T06:35:03;8.32;;;6.10;;
81106;SDS011;70588;53.172;8.620;2023-08-12T06:37:29;8.48;;;5.10;;
81106;SDS011;70588;53.172;8.620;2023-08-12T06:39:54;9.27;;;5.82;;
81106;SDS011;70588;53.172;8.620;2023-08-12T06:42:20;10.43;;;5.72;;
81106;SDS011;70588;53.172;8.620;2023-08-12T06:44:49;9.77;;;6.65;;
81106;SDS011;70588;53.172;8.620;2023-08-12T06:47:22;8.35;;;5.65;;
81106;SDS011;70588;53.172;8.620;2023-08-12T06:49:47;7.90;;;4.97;;
81106;SDS011;70588;53.172;8.620;2023-08-12T06:52:13;7.97;;;5.55;;
81106;SDS011;70588;53.172;8.620;2023-08-12T06:54:38;7.40;;;5.38;;
81106;SDS011;70588;53.172;8.620;2023-08-12T06:57:03;7.93;;;6.05;;
81106;SDS011;70588;53.172;8.620;2023-08-12T06:59:29;7.53;;;5.50;;
81106;SDS011;70588;53.172;8.620;2023-08-12T07:01:54;8.43;;;6.43;;
81106;SDS011;70588;53.172;8.620;2023-08-12T07:04:20;7.53;;;6.30;;
81106;SDS011;70588;53.172;8.620;2023-08-12T07:06:45;8.73;;;6.30;;
81106;SDS011;70588;53.172;8.620;2023-08-12T07:09:11;9.97;;;7.33;;
81106;SDS011;70588;53.172;8.620;2023-08-12T07:11:36;12.43;;;7.43;;
81106;SDS011;70588;53.172;8.620;2023-08-12T07:14:01;7.10;;;5.47;;
81106;SDS011;70588;53.172;8.620;2023-08-12T07:16:27;8.60;;;6.70;;
81106;SDS011;70588;53.172;8.620;2023-08-12T07:18:52;8.63;;;6.95;;
81106;SDS011;70588;53.172;8.620;2023-08-12T07:21:17;8.63;;;5.47;;
81106;SDS011;70588;53.172;8.620;2023-08-12T07:23:43;6.63;;;5.57;;
81106;SDS011;70588;53.172;8.620;2023-08-12T07:26:08;8.10;;;5.72;;
81106;SDS011;70588;53.172;8.620;2023-08-12T07:28:33;6.10;;;4.55;;
81106;SDS011;70588;53.172;8.620;2023-08-12T07:31:02;7.65;;;5.97;;
81106;SDS011;70588;53.172;8.620;2023-08-12T07:33:27;6.50;;;5.00;;
81106;SDS011;70588;53.172;8.620;2023-08-12T07:35:53;7.32;;;4.63;;
81106;SDS011;70588;53.172;8.620;2023-08-12T07:38:18;6.57;;;4.60;;
81106;SDS011;70588;53.172;8.620;2023-08-12T07:40:44;8.07;;;5.07;;
81106;SDS011;70588;53.172;8.620;2023-08-12T07:43:09;5.63;;;5.00;;
81106;SDS011;70588;53.172;8.620;2023-08-12T07:45:34;6.82;;;4.90;;
81106;SDS011;70588;53.172;8.620;2023-08-12T07:48:00;6.75;;;4.45;;
81106;SDS011;70588;53.172;8.620;2023-08-12T07:50:25;7.07;;;5.03;;
81106;SDS011;70588;53.172;8.620;2023-08-12T07:52:50;7.05;;;5.10;;
81106;SDS011;70588;53.172;8.620;2023-08-12T07:55:16;7.53;;;4.85;;
81106;SDS011;70588;53.172;8.620;2023-08-12T07:57:44;8.45;;;5.10;;
81106;SDS011;70588;53.172;8.620;2023-08-12T08:00:10;5.93;;;4.03;;
81106;SDS011;70588;53.172;8.620;2023-08-12T08:02:37;7.03;;;4.72;;
81106;SDS011;70588;53.172;8.620;2023-08-12T08:05:02;7.15;;;4.45;;
81106;SDS011;70588;53.172;8.620;2023-08-12T08:07:28;6.68;;;4.20;;
81106;SDS011;70588;53.172;8.620;2023-08-12T08:09:53;7.05;;;4.95;;
81106;SDS011;70588;53.172;8.620;2023-08-12T08:12:19;7.25;;;4.82;;
81106;SDS011;70588;53.172;8.620;2023-08-12T08:14:44;7.50;;;5.50;;
81106;SDS011;70588;53.172;8.620;2023-08-12T08:17:09;8.00;;;4.70;;
81106;SDS011;70588;53.172;8.620;2023-08-12T08:19:35;6.78;;;5.40;;
81106;SDS011;70588;53.172;8.620;2023-08-12T08:22:00;8.07;;;4.47;;
81106;SDS011;70588;53.172;8.620;2023-08-12T08:24:26;7.43;;;4.78;;
81106;SDS011;70588;53.172;8.620;2023-08-12T08:26:52;7.03;;;5.32;;
81106;SDS011;70588;53.172;8.620;2023-08-12T08:29:17;9.85;;;5.65;;
81106;SDS011;70588;53.172;8.620;2023-08-12T08:31:42;6.95;;;4.70;;
81106;SDS011;70588;53.172;8.620;2023-08-12T08:34:08;8.63;;;4.95;;
81106;SDS011;70588;53.172;8.620;2023-08-12T08:36:34;10.35;;;5.47;;
81106;SDS011;70588;53.172;8.620;2023-08-12T08:39:00;7.07;;;4.22;;
81106;SDS011;70588;53.172;8.620;2023-08-12T08:41:25;5.00;;;4.28;;
81106;SDS011;70588;53.172;8.620;2023-08-12T08:43:55;4.13;;;3.45;;
81106;SDS011;70588;53.172;8.620;2023-08-12T08:46:26;5.57;;;3.45;;
81106;SDS011;70588;53.172;8.620;2023-08-12T08:48:52;5.53;;;3.85;;
81106;SDS011;70588;53.172;8.620;2023-08-12T08:51:18;6.68;;;4.55;;
81106;SDS011;70588;53.172;8.620;2023-08-12T08:53:45;3.50;;;3.00;;
81106;SDS011;70588;53.172;8.620;2023-08-12T08:56:11;7.63;;;5.00;;
81106;SDS011;70588;53.172;8.620;2023-08-12T08:58:39;6.55;;;5.22;;
81106;SDS011;70588;53.172;8.620;2023-08-12T09:01:05;7.22;;;5.47;;
81106;SDS011;70588;53.172;8.620;2023-08-12T09:03:32;9.77;;;6.35;;
81106;SDS011;70588;53.172;8.620;2023-08-12T09:06:00;6.10;;;5.50;;
81106;SDS011;70588;53.172;8.620;2023-08-12T09:08:26;6.88;;;4.85;;
81106;SDS011;70588;53.172;8.620;2023-08-12T09:10:54;4.57;;;4.13;;
81106;SDS011;70588;53.172;8.620;2023-08-12T09:13:20;6.47;;;4.70;;
81106;SDS011;70588;53.172;8.620;2023-08-12T09:15:45;6.47;;;4.90;;
81106;SDS011;70588;53.172;8.620;2023-08-12T09:18:11;6.97;;;4.82;;
81106;SDS011;70588;53.172;8.620;2023-08-12T09:20:37;6.47;;;4.85;;
81106;SDS011;70588;53.172;8.620;2023-08-12T09:23:02;6.70;;;5.03;;
81106;SDS011;70588;53.172;8.620;2023-08-12T09:25:28;6.65;;;4.25;;
81106;SDS011;70588;53.172;8.620;2023-08-12T09:27:55;4.55;;;3.92;;
81106;SDS011;70588;53.172;8.620;2023-08-12T09:30:23;5.28;;;4.32;;
81106;SDS011;70588;53.172;8.620;2023-08-12T09:33:01;5.35;;;3.97;;
81106;SDS011;70588;53.172;8.620;2023-08-12T09:35:32;6.32;;;4.65;;
81106;SDS011;70588;53.172;8.620;2023-08-12T09:37:58;6.22;;;4.82;;
81106;SDS011;70588;53.172;8.620;2023-08-12T09:40:24;7.60;;;4.65;;
81106;SDS011;70588;53.172;8.620;2023-08-12T09:42:49;6.68;;;5.35;;
81106;SDS011;70588;53.172;8.620;2023-08-12T09:45:15;8.30;;;5.70;;
81106;SDS011;70588;53.172;8.620;2023-08-12T09:47:42;9.95;;;7.10;;
81106;SDS011;70588;53.172;8.620;2023-08-12T09:50:09;10.27;;;7.55;;
81106;SDS011;70588;53.172;8.620;2023-08-12T09:52:35;9.98;;;8.88;;
81106;SDS011;70588;53.172;8.620;2023-08-12T09:55:00;10.30;;;7.90;;
81106;SDS011;70588;53.172;8.620;2023-08-12T09:57:30;9.88;;;8.40;;
81106;SDS011;70588;53.172;8.620;2023-08-12T09:59:58;9.52;;;7.72;;
81106;SDS011;70588;53.172;8.620;2023-08-12T10:02:25;9.35;;;6.97;;
81106;SDS011;70588;53.172;8.620;2023-08-12T10:04:53;10.57;;;7.95;;
81106;SDS011;70588;53.172;8.620;2023-08-12T10:07:21;9.23;;;7.32;;
81106;SDS011;70588;53.172;8.620;2023-08-12T10:09:48;9.43;;;6.90;;
81106;SDS011;70588;53.172;8.620;2023-08-12T10:12:14;9.23;;;7.35;;
81106;SDS011;70588;53.172;8.620;2023-08-12T10:14:40;10.38;;;8.70;;
81106;SDS011;70588;53.172;8.620;2023-08-12T10:17:06;9.88;;;7.10;;
81106;SDS011;70588;53.172;8.620;2023-08-12T10:19:34;7.15;;;6.40;;
81106;SDS011;70588;53.172;8.620;2023-08-12T10:22:00;10.18;;;7.47;;
81106;SDS011;70588;53.172;8.620;2023-08-12T10:24:28;10.35;;;8.38;;
81106;SDS011;70588;53.172;8.620;2023-08-12T10:26:55;11.23;;;9.30;;
81106;SDS011;70588;53.172;8.620;2023-08-12T10:29:20;11.68;;;8.98;;
81106;SDS011;70588;53.172;8.620;2023-08-12T10:31:48;11.63;;;9.27;;
81106;SDS011;70588;53.172;8.620;2023-08-12T10:34:18;13.27;;;10.07;;
81106;SDS011;70588;53.172;8.620;2023-08-12T10:36:47;13.52;;;9.23;;
81106;SDS011;70588;53.172;8.620;2023-08-12T10:39:13;9.45;;;8.00;;
81106;SDS011;70588;53.172;8.620;2023-08-12T10:41:39;10.43;;;7.70;;
81106;SDS011;70588;53.172;8.620;2023-08-12T10:44:16;9.38;;;7.38;;
81106;SDS011;70588;53.172;8.620;2023-08-12T10:46:41;9.75;;;6.05;;
81106;SDS011;70588;53.172;8.620;2023-08-12T10:49:15;8.75;;;6.30;;
81106;SDS011;70588;53.172;8.620;2023-08-12T10:51:50;6.50;;;5.20;;
81106;SDS011;70588;53.172;8.620;2023-08-12T10:57:06;6.78;;;5.75;;
81106;SDS011;70588;53.172;8.620;2023-08-12T11:02:21;7.88;;;6.00;;
81106;SDS011;70588;53.172;8.620;2023-08-12T11:07:32;8.75;;;7.32;;
81106;SDS011;70588;53.172;8.620;2023-08-12T11:09:59;7.60;;;6.70;;
81106;SDS011;70588;53.172;8.620;2023-08-12T11:12:34;12.40;;;7.60;;
81106;SDS011;70588;53.172;8.620;2023-08-12T11:15:00;11.00;;;8.18;;
81106;SDS011;70588;53.172;8.620;2023-08-12T11:17:37;8.45;;;6.95;;
81106;SDS011;70588;53.172;8.620;2023-08-12T11:20:13;14.48;;;10.25;;
81106;SDS011;70588;53.172;8.620;2023-08-12T11:22:39;11.70;;;8.23;;
81106;SDS011;70588;53.172;8.620;2023-08-12T11:25:12;11.02;;;9.90;;
81106;SDS011;70588;53.172;8.620;2023-08-12T11:27:43;11.05;;;9.35;;
81106;SDS011;70588;53.172;8.620;2023-08-12T11:30:13;10.35;;;9.00;;
81106;SDS011;70588;53.172;8.620;2023-08-12T11:32:40;8.93;;;7.40;;
81106;SDS011;70588;53.172;8.620;2023-08-12T11:35:08;12.30;;;9.32;;
81106;SDS011;70588;53.172;8.620;2023-08-12T11:37:36;11.80;;;9.20;;
81106;SDS011;70588;53.172;8.620;2023-08-12T11:40:04;13.27;;;9.77;;
81106;SDS011;70588;53.172;8.620;2023-08-12T11:42:31;14.90;;;10.60;;
81106;SDS011;70588;53.172;8.620;2023-08-12T11:44:56;10.15;;;8.45;;
81106;SDS011;70588;53.172;8.620;2023-08-12T11:47:42;9.07;;;7.03;;
81106;SDS011;70588;53.172;8.620;2023-08-12T11:50:09;11.23;;;9.63;;
81106;SDS011;70588;53.172;8.620;2023-08-12T11:52:36;9.88;;;7.80;;
81106;SDS011;70588;53.172;8.620;2023-08-12T11:55:02;10.10;;;9.10;;
81106;SDS011;70588;53.172;8.620;2023-08-12T11:57:28;9.77;;;8.10;;
81106;SDS011;70588;53.172;8.620;2023-08-12T12:00:03;9.50;;;7.85;;
81106;SDS011;70588;53.172;8.620;2023-08-12T12:02:38;11.13;;;9.75;;
81106;SDS011;70588;53.172;8.620;2023-08-12T12:07:35;11.63;;;9.98;;
81106;SDS011;70588;53.172;8.620;2023-08-12T12:10:01;9.98;;;8.70;;
81106;SDS011;70588;53.172;8.620;2023-08-12T12:12:27;11.50;;;8.65;;
81106;SDS011;70588;53.172;8.620;2023-08-12T12:14:52;8.18;;;7.32;;
81106;SDS011;70588;53.172;8.620;2023-08-12T12:17:22;10.57;;;8.23;;
81106;SDS011;70588;53.172;8.620;2023-08-12T12:19:54;10.07;;;6.43;;
81106;SDS011;70588;53.172;8.620;2023-08-12T12:22:31;6.97;;;6.20;;
81106;SDS011;70588;53.172;8.620;2023-08-12T12:25:00;7.93;;;6.40;;
81106;SDS011;70588;53.172;8.620;2023-08-12T12:27:31;6.88;;;5.57;;
81106;SDS011;70588;53.172;8.620;2023-08-12T12:29:57;6.78;;;5.95;;
81106;SDS011;70588;53.172;8.620;2023-08-12T12:32:22;7.53;;;6.50;;
81106;SDS011;70588;53.172;8.620;2023-08-12T12:34:47;7.10;;;6.45;;
81106;SDS011;70588;53.172;8.620;2023-08-12T12:37:13;5.25;;;4.65;;
81106;SDS011;70588;53.172;8.620;2023-08-12T12:39:39;7.55;;;5.57;;
81106;SDS011;70588;53.172;8.620;2023-08-12T12:42:05;6.10;;;5.07;;
81106;SDS011;70588;53.172;8.620;2023-08-12T12:44:30;8.32;;;5.97;;
81106;SDS011;70588;53.172;8.620;2023-08-12T12:46:56;6.20;;;4.85;;
81106;SDS011;70588;53.172;8.620;2023-08-12T12:49:21;6.57;;;5.18;;
81106;SDS011;70588;53.172;8.620;2023-08-12T12:51:47;4.93;;;4.43;;
81106;SDS011;70588;53.172;8.620;2023-08-12T12:54:12;6.95;;;5.35;;
81106;SDS011;70588;53.172;8.620;2023-08-12T12:56:37;4.05;;;3.63;;
81106;SDS011;70588;53.172;8.620;2023-08-12T12:59:03;4.55;;;4.07;;
81106;SDS011;70588;53.172;8.620;2023-08-12T13:01:28;4.93;;;4.43;;
81106;SDS011;70588;53.172;8.620;2023-08-12T13:03:54;4.20;;;3.67;;
81106;SDS011;70588;53.172;8.620;2023-08-12T13:06:19;3.50;;;3.20;;
81106;SDS011;70588;53.172;8.620;2023-08-12T13:08:44;4.47;;;3.90;;
81106;SDS011;70588;53.172;8.620;2023-08-12T13:11:10;3.50;;;3.05;;
81106;SDS011;70588;53.172;8.620;2023-08-12T13:13:35;4.40;;;3.65;;
81106;SDS011;70588;53.172;8.620;2023-08-12T13:16:01;5.13;;;3.88;;
81106;SDS011;70588;53.172;8.620;2023-08-12T13:18:26;3.93;;;3.53;;
81106;SDS011;70588;53.172;8.620;2023-08-12T13:20:51;5.20;;;3.75;;
81106;SDS011;70588;53.172;8.620;2023-08-12T13:23:17;4.40;;;4.00;;
81106;SDS011;70588;53.172;8.620;2023-08-12T13:25:42;5.50;;;4.38;;
81106;SDS011;70588;53.172;8.620;2023-08-12T13:28:08;4.53;;;3.90;;
81106;SDS011;70588;53.172;8.620;2023-08-12T13:30:33;4.43;;;3.05;;
81106;SDS011;70588;53.172;8.620;2023-08-12T13:32:58;5.68;;;3.05;;
81106;SDS011;70588;53.172;8.620;2023-08-12T13:35:24;3.05;;;2.75;;
81106;SDS011;70588;53.172;8.620;2023-08-12T13:37:50;2.35;;;2.15;;
81106;SDS011;70588;53.172;8.620;2023-08-12T13:40:16;2.17;;;2.03;;
81106;SDS011;70588;53.172;8.620;2023-08-12T13:42:42;2.47;;;2.20;;
81106;SDS011;70588;53.172;8.620;2023-08-12T13:45:07;2.80;;;2.30;;
81106;SDS011;70588;53.172;8.620;2023-08-12T13:47:34;2.80;;;2.22;;
81106;SDS011;70588;53.172;8.620;2023-08-12T13:50:00;4.63;;;2.93;;
81106;SDS011;70588;53.172;8.620;2023-08-12T13:52:25;2.55;;;2.35;;
81106;SDS011;70588;53.172;8.620;2023-08-12T13:54:51;3.67;;;3.08;;
81106;SDS011;70588;53.172;8.620;2023-08-12T13:57:16;4.22;;;2.67;;
81106;SDS011;70588;53.172;8.620;2023-08-12T13:59:41;2.80;;;2.15;;
81106;SDS011;70588;53.172;8.620;2023-08-12T14:02:09;2.60;;;2.40;;
81106;SDS011;70588;53.172;8.620;2023-08-12T14:04:35;2.72;;;2.53;;
81106;SDS011;70588;53.172;8.620;2023-08-12T14:07:02;1.83;;;1.73;;
81106;SDS011;70588;53.172;8.620;2023-08-12T14:09:28;0.60;;;0.60;;
81106;SDS011;70588;53.172;8.620;2023-08-12T14:11:53;0.50;;;0.50;;
81106;SDS011;70588;53.172;8.620;2023-08-12T14:14:19;0.40;;;0.37;;
81106;SDS011;70588;53.172;8.620;2023-08-12T14:16:44;0.30;;;0.30;;
81106;SDS011;70588;53.172;8.620;2023-08-12T14:19:09;0.83;;;0.43;;
81106;SDS011;70588;53.172;8.620;2023-08-12T14:21:35;0.30;;;0.30;;
81106;SDS011;70588;53.172;8.620;2023-08-12T14:24:00;0.63;;;0.40;;
81106;SDS011;70588;53.172;8.620;2023-08-12T14:26:26;0.30;;;0.30;;
81106;SDS011;70588;53.172;8.620;2023-08-12T14:28:51;0.70;;;0.60;;
81106;SDS011;70588;53.172;8.620;2023-08-12T14:31:16;0.50;;;0.50;;
81106;SDS011;70588;53.172;8.620;2023-08-12T14:33:42;0.60;;;0.60;;
81106;SDS011;70588;53.172;8.620;2023-08-12T14:36:08;0.85;;;0.63;;
81106;SDS011;70588;53.172;8.620;2023-08-12T14:38:33;1.17;;;0.80;;
81106;SDS011;70588;53.172;8.620;2023-08-12T14:40:59;0.73;;;0.60;;
81106;SDS011;70588;53.172;8.620;2023-08-12T14:43:24;0.85;;;0.70;;
81106;SDS011;70588;53.172;8.620;2023-08-12T14:45:50;0.73;;;0.60;;
81106;SDS011;70588;53.172;8.620;2023-08-12T14:48:15;0.90;;;0.57;;
81106;SDS011;70588;53.172;8.620;2023-08-12T14:50:42;0.77;;;0.65;;
81106;SDS011;70588;53.172;8.620;2023-08-12T14:53:07;1.27;;;0.57;;
81106;SDS011;70588;53.172;8.620;2023-08-12T14:55:33;0.65;;;0.65;;